sensor_id;sensor_type;location;lat;lon;timestamp;pressure;altitude;pressure_sealevel;temperature;humidity
21276;BME280;36472;52.170;20.884;2023-04-26T00:01:11;99680.03;;;8.33;100.00
21276;BME280;36472;52.170;20.884;2023-04-26T00:03:41;99676.88;;;8.28;100.00
21276;BME280;36472;52.170;20.884;2023-04-26T00:06:10;99673.53;;;8.26;100.00
21276;BME280;36472;52.170;20.884;2023-04-26T00:08:41;99672.47;;;8.28;100.00
21276;BME280;36472;52.170;20.884;2023-04-26T00:11:10;99681.59;;;8.22;100.00
21276;BME280;36472;52.170;20.884;2023-04-26T00:13:39;99684.09;;;8.24;100.00
21276;BME280;36472;52.170;20.884;2023-04-26T00:16:09;99681.59;;;8.22;100.00
21276;BME280;36472;52.170;20.884;2023-04-26T00:18:38;99694.66;;;8.22;100.00
21276;BME280;36472;52.170;20.884;2023-04-26T00:21:07;99687.22;;;8.16;100.00
21276;BME280;36472;52.170;20.884;2023-04-26T00:23:36;99685.25;;;8.20;100.00
21276;BME280;36472;52.170;20.884;2023-04-26T00:26:04;99688.50;;;8.23;99.92
21276;BME280;36472;52.170;20.884;2023-04-26T00:28:34;99699.91;;;8.22;99.15
21276;BME280;36472;52.170;20.884;2023-04-26T00:31:02;99696.66;;;8.19;99.47
21276;BME280;36472;52.170;20.884;2023-04-26T00:33:33;99706.06;;;8.21;99.13
21276;BME280;36472;52.170;20.884;2023-04-26T00:36:02;99710.28;;;8.24;99.20
21276;BME280;36472;52.170;20.884;2023-04-26T00:38:31;99710.28;;;8.24;98.67
21276;BME280;36472;52.170;20.884;2023-04-26T00:40:59;99709.84;;;8.17;97.94
21276;BME280;36472;52.170;20.884;2023-04-26T00:43:28;99715.06;;;8.17;97.80
21276;BME280;36472;52.170;20.884;2023-04-26T00:45:57;99710.03;;;8.14;97.48
21276;BME280;36472;52.170;20.884;2023-04-26T00:48:27;99715.47;;;8.11;97.70
21276;BME280;36472;52.170;20.884;2023-04-26T00:50:57;99721.47;;;8.13;98.64
21276;BME280;36472;52.170;20.884;2023-04-26T00:53:26;99715.69;;;8.08;97.90
21276;BME280;36472;52.170;20.884;2023-04-26T00:55:58;99716.22;;;8.13;98.18
21276;BME280;36472;52.170;20.884;2023-04-26T00:58:27;99714.53;;;8.12;98.07
21276;BME280;36472;52.170;20.884;2023-04-26T01:00:57;99721.47;;;8.13;98.17
21276;BME280;36472;52.170;20.884;2023-04-26T01:03:26;99715.38;;;8.13;97.66
21276;BME280;36472;52.170;20.884;2023-04-26T01:05:57;99723.22;;;8.13;97.70
21276;BME280;36472;52.170;20.884;2023-04-26T01:08:26;99724.09;;;8.13;97.33
21276;BME280;36472;52.170;20.884;2023-04-26T01:10:57;99731.06;;;8.13;97.26
21276;BME280;36472;52.170;20.884;2023-04-26T01:13:28;99726.91;;;8.10;96.71
21276;BME280;36472;52.170;20.884;2023-04-26T01:15:59;99723.31;;;8.11;96.54
21276;BME280;36472;52.170;20.884;2023-04-26T01:18:29;99726.72;;;8.13;97.09
21276;BME280;36472;52.170;20.884;2023-04-26T01:20:59;99732.78;;;8.14;97.14
21276;BME280;36472;52.170;20.884;2023-04-26T01:23:31;99731.06;;;8.13;96.59
21276;BME280;36472;52.170;20.884;2023-04-26T01:26:00;99731.06;;;8.13;96.22
21276;BME280;36472;52.170;20.884;2023-04-26T01:28:29;99729.41;;;8.12;96.62
21276;BME280;36472;52.170;20.884;2023-04-26T01:30:58;99728.56;;;8.11;96.34
21276;BME280;36472;52.170;20.884;2023-04-26T01:33:27;99734.84;;;8.09;96.04
21276;BME280;36472;52.170;20.884;2023-04-26T01:35:55;99735.88;;;8.06;95.79
21276;BME280;36472;52.170;20.884;2023-04-26T01:38:24;99734.50;;;8.00;95.72
21276;BME280;36472;52.170;20.884;2023-04-26T01:40:55;99740.47;;;8.02;96.05
21276;BME280;36472;52.170;20.884;2023-04-26T01:43:24;99733.88;;;7.97;95.31
21276;BME280;36472;52.170;20.884;2023-04-26T01:45:52;99737.31;;;7.97;95.01
21276;BME280;36472;52.170;20.884;2023-04-26T01:48:31;99736.00;;;8.04;95.68
21276;BME280;36472;52.170;20.884;2023-04-26T01:51:01;99735.88;;;8.06;95.37
21276;BME280;36472;52.170;20.884;2023-04-26T01:53:30;99735.69;;;8.09;95.55
21276;BME280;36472;52.170;20.884;2023-04-26T01:56:01;99733.25;;;8.06;95.51
21276;BME280;36472;52.170;20.884;2023-04-26T01:58:30;99723.53;;;8.08;94.96
21276;BME280;36472;52.170;20.884;2023-04-26T02:01:06;99740.09;;;8.09;95.22
21276;BME280;36472;52.170;20.884;2023-04-26T02:03:37;99738.50;;;8.06;95.14
21276;BME280;36472;52.170;20.884;2023-04-26T02:06:06;99737.56;;;8.07;94.73
21276;BME280;36472;52.170;20.884;2023-04-26T02:08:35;99745.13;;;8.12;94.92
21276;BME280;36472;52.170;20.884;2023-04-26T02:11:05;99740.72;;;8.12;95.01
21276;BME280;36472;52.170;20.884;2023-04-26T02:13:35;99736.94;;;8.16;95.00
21276;BME280;36472;52.170;20.884;2023-04-26T02:16:05;99744.59;;;8.19;94.96
21276;BME280;36472;52.170;20.884;2023-04-26T02:18:34;99749.09;;;8.17;94.54
21276;BME280;36472;52.170;20.884;2023-04-26T02:21:06;99743.13;;;8.15;94.16
21276;BME280;36472;52.170;20.884;2023-04-26T02:23:36;99747.41;;;8.16;93.75
21276;BME280;36472;52.170;20.884;2023-04-26T02:26:06;99749.84;;;8.19;93.77
21276;BME280;36472;52.170;20.884;2023-04-26T02:28:35;99740.44;;;8.17;93.70
21276;BME280;36472;52.170;20.884;2023-04-26T02:31:04;99741.78;;;8.22;93.74
21276;BME280;36472;52.170;20.884;2023-04-26T02:33:33;99747.75;;;8.24;93.88
21276;BME280;36472;52.170;20.884;2023-04-26T02:36:04;99748.28;;;8.30;93.67
21276;BME280;36472;52.170;20.884;2023-04-26T02:38:34;99752.06;;;8.26;93.24
21276;BME280;36472;52.170;20.884;2023-04-26T02:41:06;99744.59;;;8.19;92.15
21276;BME280;36472;52.170;20.884;2023-04-26T02:43:35;99742.19;;;8.16;92.03
21276;BME280;36472;52.170;20.884;2023-04-26T02:46:06;99744.78;;;8.16;92.43
21276;BME280;36472;52.170;20.884;2023-04-26T02:48:35;99747.41;;;8.16;92.06
21276;BME280;36472;52.170;20.884;2023-04-26T02:51:05;99741.09;;;8.06;90.79
21276;BME280;36472;52.170;20.884;2023-04-26T02:53:35;99741.53;;;8.00;90.61
21276;BME280;36472;52.170;20.884;2023-04-26T02:56:04;99760.03;;;7.97;90.78
21276;BME280;36472;52.170;20.884;2023-04-26T02:58:35;99758.66;;;7.91;90.57
21276;BME280;36472;52.170;20.884;2023-04-26T03:01:05;99760.53;;;7.89;90.61
21276;BME280;36472;52.170;20.884;2023-04-26T03:03:34;99756.31;;;7.86;91.06
21276;BME280;36472;52.170;20.884;2023-04-26T03:06:04;99754.00;;;7.82;91.22
21276;BME280;36472;52.170;20.884;2023-04-26T03:08:33;99753.91;;;7.83;91.50
21276;BME280;36472;52.170;20.884;2023-04-26T03:11:03;99762.16;;;7.77;91.06
21276;BME280;36472;52.170;20.884;2023-04-26T03:13:32;99758.03;;;7.73;91.17
21276;BME280;36472;52.170;20.884;2023-04-26T03:16:03;99753.00;;;7.70;91.49
21276;BME280;36472;52.170;20.884;2023-04-26T03:18:32;99750.78;;;7.64;91.43
21276;BME280;36472;52.170;20.884;2023-04-26T03:21:01;99758.09;;;7.59;91.40
21276;BME280;36472;52.170;20.884;2023-04-26T03:23:30;99751.56;;;7.52;91.52
21276;BME280;36472;52.170;20.884;2023-04-26T03:25:59;99758.00;;;7.46;92.29
21276;BME280;36472;52.170;20.884;2023-04-26T03:28:29;99755.47;;;7.44;92.56
21276;BME280;36472;52.170;20.884;2023-04-26T03:30:58;99757.19;;;7.45;92.53
21276;BME280;36472;52.170;20.884;2023-04-26T03:33:30;99761.66;;;7.43;92.15
21276;BME280;36472;52.170;20.884;2023-04-26T03:35:59;99773.03;;;7.42;91.88
21276;BME280;36472;52.170;20.884;2023-04-26T03:38:28;99774.47;;;7.34;91.58
21276;BME280;36472;52.170;20.884;2023-04-26T03:40:57;99770.38;;;7.29;91.36
21276;BME280;36472;52.170;20.884;2023-04-26T03:43:27;99767.09;;;7.26;91.37
21276;BME280;36472;52.170;20.884;2023-04-26T03:45:55;99774.19;;;7.24;91.08
21276;BME280;36472;52.170;20.884;2023-04-26T03:48:24;99777.75;;;7.23;91.15
21276;BME280;36472;52.170;20.884;2023-04-26T03:50:55;99778.66;;;7.22;90.13
21276;BME280;36472;52.170;20.884;2023-04-26T03:53:24;99776.41;;;7.16;89.86
21276;BME280;36472;52.170;20.884;2023-04-26T03:55:53;99776.81;;;7.09;89.44
21276;BME280;36472;52.170;20.884;2023-04-26T03:58:22;99778.13;;;7.02;89.02
21276;BME280;36472;52.170;20.884;2023-04-26T04:00:51;99779.97;;;7.00;89.41
21276;BME280;36472;52.170;20.884;2023-04-26T04:03:20;99784.25;;;7.01;89.92
21276;BME280;36472;52.170;20.884;2023-04-26T04:05:49;99790.06;;;7.06;89.88
21276;BME280;36472;52.170;20.884;2023-04-26T04:08:19;99781.09;;;6.96;89.04
21276;BME280;36472;52.170;20.884;2023-04-26T04:10:49;99790.06;;;6.92;89.11
21276;BME280;36472;52.170;20.884;2023-04-26T04:13:19;99793.75;;;6.88;88.63
21276;BME280;36472;52.170;20.884;2023-04-26T04:15:47;99787.78;;;6.86;88.45
21276;BME280;36472;52.170;20.884;2023-04-26T04:18:16;99791.44;;;6.83;88.29
21276;BME280;36472;52.170;20.884;2023-04-26T04:20:46;99793.03;;;6.86;89.18
21276;BME280;36472;52.170;20.884;2023-04-26T04:23:15;99792.28;;;6.84;87.43
21276;BME280;36472;52.170;20.884;2023-04-26T04:25:45;99799.38;;;6.82;87.15
21276;BME280;36472;52.170;20.884;2023-04-26T04:28:15;99798.72;;;6.78;87.14
21276;BME280;36472;52.170;20.884;2023-04-26T04:30:45;99799.81;;;6.74;86.92
21276;BME280;36472;52.170;20.884;2023-04-26T04:33:14;99798.72;;;6.78;86.87
21276;BME280;36472;52.170;20.884;2023-04-26T04:35:44;99801.50;;;6.75;86.19
21276;BME280;36472;52.170;20.884;2023-04-26T04:38:13;99804.28;;;6.72;85.96
21276;BME280;36472;52.170;20.884;2023-04-26T04:40:42;99801.41;;;6.77;86.00
21276;BME280;36472;52.170;20.884;2023-04-26T04:43:12;99810.00;;;6.79;86.11
21276;BME280;36472;52.170;20.884;2023-04-26T04:45:42;99807.47;;;6.77;85.48
21276;BME280;36472;52.170;20.884;2023-04-26T04:48:14;99814.16;;;6.67;85.05
21276;BME280;36472;52.170;20.884;2023-04-26T04:50:44;99819.47;;;6.65;85.03
21276;BME280;36472;52.170;20.884;2023-04-26T04:53:13;99817.88;;;6.63;84.41
21276;BME280;36472;52.170;20.884;2023-04-26T04:55:42;99817.59;;;6.67;84.87
21276;BME280;36472;52.170;20.884;2023-04-26T04:58:16;99822.81;;;6.67;84.92
21276;BME280;36472;52.170;20.884;2023-04-26T05:00:45;99823.19;;;6.61;83.32
21276;BME280;36472;52.170;20.884;2023-04-26T05:03:25;99827.56;;;6.61;82.92
21276;BME280;36472;52.170;20.884;2023-04-26T05:05:54;99832.78;;;6.61;82.74
21276;BME280;36472;52.170;20.884;2023-04-26T05:08:23;99828.41;;;6.61;82.98
21276;BME280;36472;52.170;20.884;2023-04-26T05:10:52;99836.34;;;6.60;82.38
21276;BME280;36472;52.170;20.884;2023-04-26T05:13:24;99842.38;;;6.60;82.82
21276;BME280;36472;52.170;20.884;2023-04-26T05:15:53;99844.84;;;6.63;83.28
21276;BME280;36472;52.170;20.884;2023-04-26T05:18:22;99846.13;;;6.56;82.63
21276;BME280;36472;52.170;20.884;2023-04-26T05:20:51;99844.34;;;6.57;82.69
21276;BME280;36472;52.170;20.884;2023-04-26T05:23:20;99846.41;;;6.66;83.06
21276;BME280;36472;52.170;20.884;2023-04-26T05:25:49;99851.78;;;6.79;82.75
21276;BME280;36472;52.170;20.884;2023-04-26T05:28:38;99854.97;;;6.84;82.59
21276;BME280;36472;52.170;20.884;2023-04-26T05:31:23;99857.97;;;6.92;80.73
21276;BME280;36472;52.170;20.884;2023-04-26T05:34:10;99866.31;;;7.13;80.43
21276;BME280;36472;52.170;20.884;2023-04-26T05:36:40;99856.81;;;7.26;79.21
21276;BME280;36472;52.170;20.884;2023-04-26T05:39:09;99863.91;;;7.39;78.38
21276;BME280;36472;52.170;20.884;2023-04-26T05:41:38;99864.09;;;7.50;78.90
21276;BME280;36472;52.170;20.884;2023-04-26T05:44:09;99858.72;;;7.80;78.30
21276;BME280;36472;52.170;20.884;2023-04-26T05:46:38;99855.06;;;7.97;76.34
21276;BME280;36472;52.170;20.884;2023-04-26T05:49:09;99859.91;;;8.03;75.71
21276;BME280;36472;52.170;20.884;2023-04-26T05:51:39;99859.22;;;8.14;75.75
21276;BME280;36472;52.170;20.884;2023-04-26T05:54:08;99861.59;;;8.32;75.99
21276;BME280;36472;52.170;20.884;2023-04-26T05:56:37;99859.50;;;8.51;75.73
21276;BME280;36472;52.170;20.884;2023-04-26T05:59:08;99867.72;;;8.59;73.90
21276;BME280;36472;52.170;20.884;2023-04-26T06:01:38;99860.31;;;8.66;73.51
21276;BME280;36472;52.170;20.884;2023-04-26T06:04:07;99857.25;;;8.72;72.31
21276;BME280;36472;52.170;20.884;2023-04-26T06:06:57;99863.66;;;8.81;71.27
21276;BME280;36472;52.170;20.884;2023-04-26T06:09:29;99863.28;;;9.00;71.78
21276;BME280;36472;52.170;20.884;2023-04-26T06:11:58;99868.41;;;9.02;70.61
21276;BME280;36472;52.170;20.884;2023-04-26T06:14:30;99868.75;;;9.10;70.48
21276;BME280;36472;52.170;20.884;2023-04-26T06:17:04;99870.66;;;9.21;70.01
21276;BME280;36472;52.170;20.884;2023-04-26T06:19:33;99869.38;;;9.26;68.68
21276;BME280;36472;52.170;20.884;2023-04-26T06:22:02;99865.41;;;9.33;68.55
21276;BME280;36472;52.170;20.884;2023-04-26T06:24:32;99862.56;;;9.36;69.02
21276;BME280;36472;52.170;20.884;2023-04-26T06:27:01;99868.97;;;9.45;68.12
21276;BME280;36472;52.170;20.884;2023-04-26T06:29:34;99868.66;;;9.50;67.35
21276;BME280;36472;52.170;20.884;2023-04-26T06:32:03;99875.66;;;9.49;66.65
21276;BME280;36472;52.170;20.884;2023-04-26T06:34:33;99867.69;;;9.51;66.29
21276;BME280;36472;52.170;20.884;2023-04-26T06:37:02;99876.28;;;9.53;66.16
21276;BME280;36472;52.170;20.884;2023-04-26T06:39:32;99872.72;;;9.54;66.24
21276;BME280;36472;52.170;20.884;2023-04-26T06:42:01;99873.16;;;9.61;66.54
21276;BME280;36472;52.170;20.884;2023-04-26T06:44:49;99883.53;;;9.62;65.45
21276;BME280;36472;52.170;20.884;2023-04-26T06:47:18;99887.09;;;9.74;64.29
21276;BME280;36472;52.170;20.884;2023-04-26T06:49:47;99888.03;;;9.86;63.82
21276;BME280;36472;52.170;20.884;2023-04-26T06:52:16;99886.22;;;9.86;63.19
21276;BME280;36472;52.170;20.884;2023-04-26T06:54:47;99886.84;;;9.90;63.77
21276;BME280;36472;52.170;20.884;2023-04-26T06:57:24;99884.75;;;10.19;63.34
21276;BME280;36472;52.170;20.884;2023-04-26T06:59:54;99882.66;;;10.37;62.85
21276;BME280;36472;52.170;20.884;2023-04-26T07:02:23;99886.22;;;10.36;61.96
21276;BME280;36472;52.170;20.884;2023-04-26T07:04:52;99885.16;;;10.26;61.30
21276;BME280;36472;52.170;20.884;2023-04-26T07:07:22;99887.34;;;10.08;62.12
21276;BME280;36472;52.170;20.884;2023-04-26T07:09:51;99892.25;;;10.13;62.00
21276;BME280;36472;52.170;20.884;2023-04-26T07:12:20;99895.88;;;10.23;59.75
21276;BME280;36472;52.170;20.884;2023-04-26T07:14:49;99892.25;;;10.13;59.41
21276;BME280;36472;52.170;20.884;2023-04-26T07:17:19;99901.44;;;10.31;58.61
21276;BME280;36472;52.170;20.884;2023-04-26T07:19:49;99892.09;;;10.27;57.74
21276;BME280;36472;52.170;20.884;2023-04-26T07:22:18;99892.69;;;10.06;58.78
21276;BME280;36472;52.170;20.884;2023-04-26T07:24:47;99896.34;;;10.17;58.86
21276;BME280;36472;52.170;20.884;2023-04-26T07:27:16;99897.72;;;10.09;57.93
21276;BME280;36472;52.170;20.884;2023-04-26T07:29:44;99890.28;;;10.03;59.59
21276;BME280;36472;52.170;20.884;2023-04-26T07:32:13;99896.97;;;10.20;59.03
21276;BME280;36472;52.170;20.884;2023-04-26T07:34:44;99893.31;;;10.47;59.78
21276;BME280;36472;52.170;20.884;2023-04-26T07:37:12;99897.63;;;10.48;58.20
21276;BME280;36472;52.170;20.884;2023-04-26T07:39:41;99903.25;;;10.55;58.66
21276;BME280;36472;52.170;20.884;2023-04-26T07:42:10;99904.97;;;10.56;56.76
21276;BME280;36472;52.170;20.884;2023-04-26T07:44:39;99899.50;;;10.70;57.94
21276;BME280;36472;52.170;20.884;2023-04-26T07:47:11;99903.31;;;10.90;57.21
21276;BME280;36472;52.170;20.884;2023-04-26T07:49:41;99904.34;;;10.88;55.14
21276;BME280;36472;52.170;20.884;2023-04-26T07:52:13;99907.06;;;10.75;56.34
21276;BME280;36472;52.170;20.884;2023-04-26T07:54:44;99921.25;;;10.72;56.54
21276;BME280;36472;52.170;20.884;2023-04-26T07:57:14;99912.94;;;10.78;55.58
21276;BME280;36472;52.170;20.884;2023-04-26T07:59:43;99915.97;;;10.96;53.38
21276;BME280;36472;52.170;20.884;2023-04-26T08:02:11;99903.09;;;11.04;53.65
21276;BME280;36472;52.170;20.884;2023-04-26T08:04:47;99913.38;;;11.08;53.29
21276;BME280;36472;52.170;20.884;2023-04-26T08:07:20;99914.88;;;10.88;52.13
21276;BME280;36472;52.170;20.884;2023-04-26T08:09:49;99918.19;;;10.78;55.07
21276;BME280;36472;52.170;20.884;2023-04-26T08:12:18;99922.78;;;10.63;56.44
21276;BME280;36472;52.170;20.884;2023-04-26T08:14:47;99931.59;;;10.38;56.95
21276;BME280;36472;52.170;20.884;2023-04-26T08:17:17;99928.44;;;10.33;58.27
21276;BME280;36472;52.170;20.884;2023-04-26T08:19:46;99933.59;;;10.35;58.20
21276;BME280;36472;52.170;20.884;2023-04-26T08:22:15;99940.03;;;10.18;58.95
21276;BME280;36472;52.170;20.884;2023-04-26T08:24:48;99935.44;;;10.08;58.24
21276;BME280;36472;52.170;20.884;2023-04-26T08:27:17;99934.00;;;9.91;58.81
21276;BME280;36472;52.170;20.884;2023-04-26T08:29:47;99934.41;;;9.85;59.61
21276;BME280;36472;52.170;20.884;2023-04-26T08:32:15;99934.84;;;9.79;59.27
21276;BME280;36472;52.170;20.884;2023-04-26T08:34:44;99939.75;;;9.84;59.03
21276;BME280;36472;52.170;20.884;2023-04-26T08:37:13;99928.91;;;10.14;57.83
21276;BME280;36472;52.170;20.884;2023-04-26T08:39:42;99937.13;;;10.71;59.12
21276;BME280;36472;52.170;20.884;2023-04-26T08:42:15;99923.72;;;10.87;54.88
21276;BME280;36472;52.170;20.884;2023-04-26T08:44:45;99932.75;;;10.71;55.39
21276;BME280;36472;52.170;20.884;2023-04-26T08:47:17;99934.38;;;10.61;55.05
21276;BME280;36472;52.170;20.884;2023-04-26T08:49:53;99937.09;;;10.59;56.39
21276;BME280;36472;52.170;20.884;2023-04-26T08:52:28;99929.00;;;10.62;55.05
21276;BME280;36472;52.170;20.884;2023-04-26T08:54:58;99928.41;;;10.70;54.91
21276;BME280;36472;52.170;20.884;2023-04-26T08:57:31;99933.25;;;10.76;53.03
21276;BME280;36472;52.170;20.884;2023-04-26T09:00:02;99944.50;;;10.65;52.61
21276;BME280;36472;52.170;20.884;2023-04-26T09:02:33;99939.72;;;10.59;52.43
21276;BME280;36472;52.170;20.884;2023-04-26T09:05:06;99943.19;;;10.60;51.18
21276;BME280;36472;52.170;20.884;2023-04-26T09:07:41;99950.16;;;10.48;50.96
21276;BME280;36472;52.170;20.884;2023-04-26T09:10:12;99958.88;;;10.48;52.14
21276;BME280;36472;52.170;20.884;2023-04-26T09:12:42;99965.28;;;10.57;51.65
21276;BME280;36472;52.170;20.884;2023-04-26T09:15:14;99957.28;;;10.83;50.87
21276;BME280;36472;52.170;20.884;2023-04-26T09:17:43;99957.22;;;10.96;50.73
21276;BME280;36472;52.170;20.884;2023-04-26T09:20:23;99967.81;;;10.83;48.82
21276;BME280;36472;52.170;20.884;2023-04-26T09:23:03;99968.28;;;10.64;49.06
21276;BME280;36472;52.170;20.884;2023-04-26T09:25:33;99975.72;;;10.46;48.62
21276;BME280;36472;52.170;20.884;2023-04-26T09:28:19;99965.22;;;10.33;48.60
21276;BME280;36472;52.170;20.884;2023-04-26T09:30:49;99964.00;;;10.13;49.49
21276;BME280;36472;52.170;20.884;2023-04-26T09:33:18;99971.88;;;10.13;49.98
21276;BME280;36472;52.170;20.884;2023-04-26T09:35:47;99963.44;;;10.21;49.44
21276;BME280;36472;52.170;20.884;2023-04-26T09:38:17;99948.63;;;11.40;47.93
21276;BME280;36472;52.170;20.884;2023-04-26T09:40:48;99954.44;;;12.80;47.15
21276;BME280;36472;52.170;20.884;2023-04-26T09:43:20;99960.59;;;13.86;43.61
21276;BME280;36472;52.170;20.884;2023-04-26T09:45:52;99955.44;;;13.63;40.33
21276;BME280;36472;52.170;20.884;2023-04-26T09:48:23;99958.72;;;13.76;41.72
21276;BME280;36472;52.170;20.884;2023-04-26T09:50:54;99967.75;;;13.53;42.98
21276;BME280;36472;52.170;20.884;2023-04-26T09:53:28;99969.91;;;13.38;42.15
21276;BME280;36472;52.170;20.884;2023-04-26T09:56:07;99962.25;;;13.02;40.42
21276;BME280;36472;52.170;20.884;2023-04-26T09:58:39;99969.06;;;13.37;40.98
21276;BME280;36472;52.170;20.884;2023-04-26T10:01:09;99957.56;;;13.06;41.44
21276;BME280;36472;52.170;20.884;2023-04-26T10:03:39;99973.44;;;12.62;42.23
21276;BME280;36472;52.170;20.884;2023-04-26T10:06:11;99975.53;;;12.13;42.25
21276;BME280;36472;52.170;20.884;2023-04-26T10:08:40;99974.03;;;11.87;44.14
21276;BME280;36472;52.170;20.884;2023-04-26T10:11:09;99978.75;;;12.17;42.45
21276;BME280;36472;52.170;20.884;2023-04-26T10:13:41;99969.59;;;13.83;40.07
21276;BME280;36472;52.170;20.884;2023-04-26T10:16:11;99967.56;;;15.07;38.31
21276;BME280;36472;52.170;20.884;2023-04-26T10:18:40;99958.91;;;15.14;37.10
21276;BME280;36472;52.170;20.884;2023-04-26T10:21:15;99969.53;;;14.45;36.59
21276;BME280;36472;52.170;20.884;2023-04-26T10:23:45;99973.34;;;14.52;37.64
21276;BME280;36472;52.170;20.884;2023-04-26T10:26:46;99976.91;;;14.41;36.58
21276;BME280;36472;52.170;20.884;2023-04-26T10:29:16;99961.66;;;14.04;35.52
21276;BME280;36472;52.170;20.884;2023-04-26T10:32:05;99969.03;;;13.79;36.17
21276;BME280;36472;52.170;20.884;2023-04-26T10:34:36;99968.22;;;13.58;36.68
21276;BME280;36472;52.170;20.884;2023-04-26T10:37:07;99963.69;;;13.27;38.24
21276;BME280;36472;52.170;20.884;2023-04-26T10:39:37;99982.91;;;12.86;39.87
21276;BME280;36472;52.170;20.884;2023-04-26T10:42:20;99985.69;;;12.18;40.37
21276;BME280;36472;52.170;20.884;2023-04-26T10:44:56;99986.59;;;11.72;41.52
21276;BME280;36472;52.170;20.884;2023-04-26T10:47:29;99996.28;;;11.25;41.88
21276;BME280;36472;52.170;20.884;2023-04-26T10:50:07;99996.72;;;11.07;42.12
21276;BME280;36472;52.170;20.884;2023-04-26T10:53:04;99994.84;;;10.96;42.61
21276;BME280;36472;52.170;20.884;2023-04-26T10:55:40;99995.75;;;10.84;44.53
21276;BME280;36472;52.170;20.884;2023-04-26T10:58:25;99995.69;;;10.97;42.95
21276;BME280;36472;52.170;20.884;2023-04-26T11:01:06;99991.50;;;11.65;41.79
21276;BME280;36472;52.170;20.884;2023-04-26T11:03:40;99991.53;;;11.88;41.83
21276;BME280;36472;52.170;20.884;2023-04-26T11:06:09;99996.66;;;11.67;43.17
21276;BME280;36472;52.170;20.884;2023-04-26T11:08:40;100011.56;;;11.55;43.52
21276;BME280;36472;52.170;20.884;2023-04-26T11:11:11;100010.66;;;11.32;43.02
21276;BME280;36472;52.170;20.884;2023-04-26T11:13:42;100021.66;;;11.26;43.13
21276;BME280;36472;52.170;20.884;2023-04-26T11:16:14;100014.75;;;11.12;44.27
21276;BME280;36472;52.170;20.884;2023-04-26T11:18:46;100027.50;;;11.05;42.59
21276;BME280;36472;52.170;20.884;2023-04-26T11:21:15;100015.78;;;10.98;42.88
21276;BME280;36472;52.170;20.884;2023-04-26T11:23:53;100016.78;;;11.08;43.37
21276;BME280;36472;52.170;20.884;2023-04-26T11:26:22;100018.00;;;11.15;43.80
21276;BME280;36472;52.170;20.884;2023-04-26T11:28:52;100017.09;;;11.28;43.60
21276;BME280;36472;52.170;20.884;2023-04-26T11:31:22;100014.44;;;11.52;43.12
21276;BME280;36472;52.170;20.884;2023-04-26T11:33:51;100020.34;;;11.67;44.04
21276;BME280;36472;52.170;20.884;2023-04-26T11:36:21;100025.28;;;11.47;43.75
21276;BME280;36472;52.170;20.884;2023-04-26T11:38:51;100032.91;;;11.28;42.63
21276;BME280;36472;52.170;20.884;2023-04-26T11:41:22;100031.50;;;11.11;42.97
21276;BME280;36472;52.170;20.884;2023-04-26T11:43:51;100027.38;;;10.95;42.50
21276;BME280;36472;52.170;20.884;2023-04-26T11:46:23;100030.13;;;10.81;42.55
21276;BME280;36472;52.170;20.884;2023-04-26T11:48:52;100030.91;;;10.70;44.01
21276;BME280;36472;52.170;20.884;2023-04-26T11:51:22;100037.06;;;10.58;43.04
21276;BME280;36472;52.170;20.884;2023-04-26T11:53:52;100042.94;;;10.48;43.81
21276;BME280;36472;52.170;20.884;2023-04-26T11:56:21;100041.06;;;10.51;43.64
21276;BME280;36472;52.170;20.884;2023-04-26T11:58:51;100036.84;;;10.48;43.97
21276;BME280;36472;52.170;20.884;2023-04-26T12:01:24;100043.97;;;10.59;44.67
21276;BME280;36472;52.170;20.884;2023-04-26T12:03:55;100043.75;;;10.62;43.80
21276;BME280;36472;52.170;20.884;2023-04-26T12:06:40;100038.44;;;10.51;43.61
21276;BME280;36472;52.170;20.884;2023-04-26T12:09:10;100045.56;;;10.48;44.66
21276;BME280;36472;52.170;20.884;2023-04-26T12:11:39;100038.44;;;10.51;44.40
21276;BME280;36472;52.170;20.884;2023-04-26T12:14:08;100037.00;;;10.71;44.90
21276;BME280;36472;52.170;20.884;2023-04-26T12:16:41;100050.41;;;10.92;45.30
21276;BME280;36472;52.170;20.884;2023-04-26T12:19:10;100040.31;;;10.85;43.81
21276;BME280;36472;52.170;20.884;2023-04-26T12:21:41;100050.06;;;10.96;45.19
21276;BME280;36472;52.170;20.884;2023-04-26T12:24:22;100062.78;;;11.02;43.34
21276;BME280;36472;52.170;20.884;2023-04-26T12:26:51;100056.31;;;10.82;41.57
21276;BME280;36472;52.170;20.884;2023-04-26T12:29:20;100053.69;;;10.82;42.63
21276;BME280;36472;52.170;20.884;2023-04-26T12:31:50;100060.19;;;10.90;42.02
21276;BME280;36472;52.170;20.884;2023-04-26T12:34:19;100055.59;;;11.04;41.76
21276;BME280;36472;52.170;20.884;2023-04-26T12:36:48;100056.94;;;11.10;41.30
21276;BME280;36472;52.170;20.884;2023-04-26T12:39:17;100064.25;;;11.31;42.52
21276;BME280;36472;52.170;20.884;2023-04-26T12:41:46;100056.16;;;11.45;42.31
21276;BME280;36472;52.170;20.884;2023-04-26T12:44:15;100061.53;;;11.44;41.63
21276;BME280;36472;52.170;20.884;2023-04-26T12:46:49;100071.88;;;11.34;42.05
21276;BME280;36472;52.170;20.884;2023-04-26T12:49:18;100065.19;;;11.30;41.96
21276;BME280;36472;52.170;20.884;2023-04-26T12:51:47;100067.31;;;11.25;43.35
21276;BME280;36472;52.170;20.884;2023-04-26T12:54:16;100072.84;;;11.09;43.89
21276;BME280;36472;52.170;20.884;2023-04-26T12:56:45;100078.56;;;10.90;43.31
21276;BME280;36472;52.170;20.884;2023-04-26T12:59:15;100087.34;;;10.77;44.00
21276;BME280;36472;52.170;20.884;2023-04-26T13:01:44;100081.56;;;10.72;44.92
21276;BME280;36472;52.170;20.884;2023-04-26T13:04:14;100078.72;;;10.75;44.90
21276;BME280;36472;52.170;20.884;2023-04-26T13:06:43;100088.22;;;10.65;44.87
21276;BME280;36472;52.170;20.884;2023-04-26T13:09:12;100084.25;;;10.59;43.87
21276;BME280;36472;52.170;20.884;2023-04-26T13:11:41;100088.84;;;10.69;44.01